Terminal Aerodrome Forecast
Issued by NWS

Home | Current Version | Previous Version | Text Only | Print | Product List | Glossary Off
Versions: 1 2 3 4 5 6 7 8 9 10 11 12 13 14 15 16 17 18 19 20 21 22 23 24 25 26 27 28 29

657
FTUS45 KGGW 051011 AAC
TAFGDV
TAF AMD
KGDV 051011Z 0510/0606 29010KT P6SM BKN025 BKN050
     FM051200 30007KT P6SM OVC100
     FM051500 25010KT P6SM SCT250
      AMD LTD TO CLD VIS AND WIND=

USA.gov is the U.S. government's official web portal to all federal, state and local government web resources and services.